Manhattan Elite — WDG9307 — position and weather

sailwx.info

Track history (hours):
 
Tides and Currents Weather Stations Pressure Air Temp Water Temp Dewpoint Dewpoint Depression Visibility Wind Speed Wind Dir Waves Ship Positions

Manhattan Elite

Owner: SPIRIT CRUISES LLC, New York, NY. More information available from US FCC via Universal Licensing System and Coast Guard Vessel Documentation Center.

Last reported at 2018-Jun-24 18:17 UTC. Time now 2018-Jun-24 18:51 UTC.
Position N 40°45' W 074°01'.

Length 25 m; draft 3 m.

Type: Ship. MMSI: 367586480.

Date/timePositionNaut miles runAvg speedWind from/ knotsBaromVisibWave heightAir tempDewpointWater temp
2018-Jun-24 18:17N 40°45' W 074°01'0 0.0
2018-Jun-24 12:16N 40°45' W 074°01'0 0.0
2018-Jun-24 11:58N 40°45' W 074°01'0 0.0
2018-Jun-24 11:26N 40°45' W 074°01'0 0.0
2018-Jun-24 07:29N 40°45' W 074°01'0 0.0
2018-Jun-24 06:52N 40°45' W 074°01'0 0.0
2018-Jun-24 06:24N 40°45' W 074°01'0 0.0
2018-Jun-24 05:58N 40°45' W 074°01'0 0.0
2018-Jun-24 05:29N 40°45' W 074°01'0 0.0
2018-Jun-24 04:33N 40°45' W 074°01'0 0.0
2018-Jun-24 01:57N 40°45' W 074°01'2 4.6
2018-Jun-24 01:30N 40°43' W 074°01'2 3.7
2018-Jun-24 01:00N 40°41' W 074°03'1 2.6
2018-Jun-24 00:30N 40°42' W 074°01'2 4.3
2018-Jun-24 00:01N 40°43' W 073°58'2 4.3
2018-Jun-23 23:31N 40°43' W 074°01'3 6.2
2018-Jun-23 23:01N 40°46' W 074°00'1 2.2
2018-Jun-23 22:30N 40°45' W 074°01'0 0.0
2018-Jun-23 21:59N 40°45' W 074°01'0 0.0
2018-Jun-23 21:30N 40°45' W 074°01'0 0.0
2018-Jun-23 20:55N 40°45' W 074°01'0 0.0
2018-Jun-23 20:25N 40°45' W 074°01'0 0.0
2018-Jun-23 19:58N 40°45' W 074°01'0 0.0
2018-Jun-23 19:11N 40°45' W 074°01'0 0.0
2018-Jun-23 17:58N 40°45' W 074°01'0 0.0
2018-Jun-23 13:38N 40°45' W 074°01'0 0.0
2018-Jun-23 13:27N 40°45' W 074°01'0 0.0
2018-Jun-23 11:35N 40°45' W 074°01'0 0.0
2018-Jun-23 11:27N 40°45' W 074°01'0 0.0
2018-Jun-23 10:57N 40°45' W 074°01'0 0.0
2018-Jun-23 10:07N 40°45' W 074°01'0 0.0
2018-Jun-23 09:58N 40°45' W 074°01'0 0.0
2018-Jun-23 09:13N 40°45' W 074°01'0 0.0
2018-Jun-23 08:59N 40°45' W 074°01'0 0.0
2018-Jun-23 08:23N 40°45' W 074°01'0 0.0
2018-Jun-23 07:58N 40°45' W 074°01'0 0.0
2018-Jun-23 07:24N 40°45' W 074°01'0 0.0
2018-Jun-23 06:51N 40°45' W 074°01'0 0.0
2018-Jun-23 06:27N 40°45' W 074°01'0 0.0
2018-Jun-23 05:52N 40°45' W 074°01'0 0.0
2018-Jun-23 05:28N 40°45' W 074°01'0 0.0
2018-Jun-23 04:16N 40°45' W 074°01'0 0.0
2018-Jun-23 03:54N 40°45' W 074°01'0 0.0
2018-Jun-23 03:13N 40°45' W 074°01'0 0.0
2018-Jun-23 02:57N 40°45' W 074°01'0 0.0
2018-Jun-23 00:23N 40°45' W 074°01'0 0.0
2018-Jun-22 23:59N 40°45' W 074°01'0 0.0
2018-Jun-22 23:26N 40°45' W 074°01'0 0.0
2018-Jun-22 22:55N 40°45' W 074°01'0 0.0
2018-Jun-22 22:25N 40°45' W 074°01'0 0.0
2018-Jun-22 21:43N 40°45' W 074°01'0 0.0
2018-Jun-22 21:29N 40°45' W 074°01'0 0.0
2018-Jun-22 20:49N 40°45' W 074°01'0 0.0
2018-Jun-22 20:18N 40°45' W 074°01'0 0.0
2018-Jun-22 19:53N 40°45' W 074°01'0 0.0
2018-Jun-22 18:31N 40°45' W 074°01'0 0.0
2018-Jun-22 18:23N 40°45' W 074°01'0 0.0
2018-Jun-22 18:00N 40°45' W 074°01'0 0.0
2018-Jun-22 17:18N 40°45' W 074°01'0 0.0
2018-Jun-22 15:24N 40°45' W 074°01'0 0.0
2018-Jun-22 14:55N 40°45' W 074°01'0 0.0
2018-Jun-22 14:27N 40°45' W 074°01'0 0.0
2018-Jun-22 11:45N 40°45' W 074°01'0 0.0
2018-Jun-22 11:21N 40°45' W 074°01'0 0.0
2018-Jun-22 10:59N 40°45' W 074°01'0 0.0
2018-Jun-22 10:25N 40°45' W 074°01'0 0.0
2018-Jun-22 10:00N 40°45' W 074°01'0 0.0
2018-Jun-22 09:29N 40°45' W 074°01'0 0.0
2018-Jun-22 08:56N 40°45' W 074°01'0 0.0
2018-Jun-22 08:24N 40°45' W 074°01'0 0.0
2018-Jun-22 07:58N 40°45' W 074°01'0 0.0
2018-Jun-22 07:28N 40°45' W 074°01'0 0.0
2018-Jun-22 06:59N 40°45' W 074°01'0 0.0
2018-Jun-22 06:20N 40°45' W 074°01'0 0.0
2018-Jun-22 05:58N 40°45' W 074°01'0 0.0
2018-Jun-22 05:21N 40°45' W 074°01'0 0.0
2018-Jun-22 05:00N 40°45' W 074°01'0 0.0
2018-Jun-22 04:30N 40°45' W 074°01'0 0.0
2018-Jun-22 03:58N 40°45' W 074°01'0 0.0
2018-Jun-22 03:21N 40°45' W 074°01'0 0.0
2018-Jun-22 02:28N 40°45' W 074°01'0 0.0
2018-Jun-22 01:53N 40°45' W 074°01'0 0.0
2018-Jun-21 23:02N 40°45' W 074°01'0 0.0
2018-Jun-21 22:47N 40°45' W 074°01'0 0.0
2018-Jun-21 22:24N 40°45' W 074°01'0 0.0
2018-Jun-21 21:46N 40°45' W 074°01'0 0.0
2018-Jun-21 21:14N 40°45' W 074°01'0 0.0
2018-Jun-21 20:51N 40°45' W 074°01'0 0.0
2018-Jun-21 20:25N 40°45' W 074°01'0 0.0
2018-Jun-21 19:58N 40°45' W 074°01'0 0.0
2018-Jun-21 19:26N 40°45' W 074°01'0 0.0
2018-Jun-21 18:55N 40°45' W 074°01'0 0.0
2018-Jun-21 18:25N 40°45' W 074°01'0 0.0
2018-Jun-21 17:35N 40°45' W 074°01'0 0.0
2018-Jun-21 17:20N 40°45' W 074°01'0 0.0
2018-Jun-21 16:51N 40°45' W 074°01'0 0.0
2018-Jun-21 16:30N 40°45' W 074°01'0 0.0
2018-Jun-21 15:43N 40°45' W 074°01'0 0.0
2018-Jun-21 15:22N 40°45' W 074°01'0 0.0
2018-Jun-21 13:50N 40°45' W 074°01'0 0.0
2018-Jun-21 11:00N 40°45' W 074°01'0 0.0
2018-Jun-21 10:26N 40°45' W 074°01'0 0.0
2018-Jun-21 10:00N 40°45' W 074°01'0 0.0
2018-Jun-21 09:27N 40°45' W 074°01'0 0.0
2018-Jun-21 08:48N 40°45' W 074°01'0 0.0
2018-Jun-21 08:24N 40°45' W 074°01'0 0.0
2018-Jun-21 07:53N 40°45' W 074°01'0 0.0
2018-Jun-21 07:29N 40°45' W 074°01'0 0.0
2018-Jun-21 06:59N 40°45' W 074°01'0 0.0
2018-Jun-21 06:00N 40°45' W 074°01'0 0.0
2018-Jun-21 05:13N 40°45' W 074°01'0 0.0
2018-Jun-21 04:59N 40°45' W 074°01'0 0.0
2018-Jun-21 04:25N 40°45' W 074°01'0 0.0
2018-Jun-21 03:59N 40°45' W 074°01'0 0.0
2018-Jun-21 03:28N 40°45' W 074°01'0 0.0
2018-Jun-21 02:48N 40°45' W 074°01'0 0.0
2018-Jun-20 23:04N 40°45' W 074°01'0 0.0
2018-Jun-20 22:56N 40°45' W 074°01'0 0.0
2018-Jun-20 22:15N 40°45' W 074°01'0 0.0
2018-Jun-20 21:14N 40°45' W 074°01'0 0.0
2018-Jun-20 20:57N 40°45' W 074°01'0 0.0
2018-Jun-20 20:21N 40°45' W 074°01'0 0.0
2018-Jun-20 19:13N 40°45' W 074°01'0 0.0
2018-Jun-20 18:54N 40°45' W 074°01'0 0.0
2018-Jun-20 17:20N 40°45' W 074°01'0 0.0
2018-Jun-20 11:15N 40°45' W 074°01'0 0.0
2018-Jun-20 10:57N 40°45' W 074°01'0 0.0
2018-Jun-20 10:17N 40°45' W 074°01'0 0.0
2018-Jun-20 09:50N 40°45' W 074°01'0 0.0
2018-Jun-20 09:30N 40°45' W 074°01'0 0.0
2018-Jun-20 08:55N 40°45' W 074°01'0 0.0
2018-Jun-20 08:25N 40°45' W 074°01'0 0.0
2018-Jun-20 07:59N 40°45' W 074°01'0 0.0
2018-Jun-20 07:29N 40°45' W 074°01'0 0.0
2018-Jun-20 07:00N 40°45' W 074°01'0 0.0
2018-Jun-20 06:23N 40°45' W 074°01'0 0.0
2018-Jun-20 05:59N 40°45' W 074°01'0 0.0
2018-Jun-20 05:19N 40°45' W 074°01'0 0.0
2018-Jun-20 04:57N 40°45' W 074°01'0 0.0
2018-Jun-20 04:15N 40°45' W 074°01'0 0.0
2018-Jun-20 02:55N 40°45' W 074°01'0 0.4
2018-Jun-20 02:30N 40°45' W 074°01'1 1.4
2018-Jun-20 02:00N 40°46' W 074°01'2 3.2
2018-Jun-20 01:30N 40°44' W 074°01'2 4.5
2018-Jun-20 01:00N 40°42' W 074°02'1 1.3
2018-Jun-20 00:30N 40°42' W 074°01'3 6.7
2018-Jun-20 00:00N 40°44' W 073°58'2 4.2
2018-Jun-19 23:30N 40°42' W 073°59'2 4.0
2018-Jun-19 23:00N 40°44' W 074°01'2 3.4
2018-Jun-19 22:30N 40°46' W 074°01'0 0.0
2018-Jun-19 21:56N 40°46' W 074°01'1 1.7
2018-Jun-19 21:28N 40°45' W 074°01'0 0.0
2018-Jun-19 20:59N 40°45' W 074°01'0 0.0
2018-Jun-19 20:30N 40°45' W 074°01'0 0.0
2018-Jun-19 20:00N 40°45' W 074°01'0 0.5
2018-Jun-19 19:30N 40°45' W 074°01'4 7.4
2018-Jun-19 19:00N 40°42' W 074°02'2 4.2
2018-Jun-19 18:30N 40°42' W 073°60'3 5.1
2018-Jun-19 18:00N 40°45' W 073°58'4 7.2
2018-Jun-19 17:30N 40°42' W 074°01'3 5.9
2018-Jun-19 17:00N 40°45' W 074°01'0 0.0
2018-Jun-19 16:25N 40°45' W 074°01'0 0.0
2018-Jun-19 15:40N 40°45' W 074°01'0 0.0
2018-Jun-19 15:19N 40°45' W 074°01'0 0.0
2018-Jun-19 14:14N 40°45' W 074°01'0 0.0
2018-Jun-19 12:03N 40°45' W 074°01'0 0.0
2018-Jun-19 11:40N 40°45' W 074°01'0 0.0
2018-Jun-19 10:01N 40°45' W 074°01'0 0.0
2018-Jun-19 09:50N 40°45' W 074°01'0 0.0
2018-Jun-19 09:28N 40°45' W 074°01'0 0.0
2018-Jun-19 08:33N 40°45' W 074°01'0 0.0
2018-Jun-19 08:23N 40°45' W 074°01'0 0.0
2018-Jun-19 07:50N 40°45' W 074°01'0 0.0
2018-Jun-19 07:30N 40°45' W 074°01'0 0.0
2018-Jun-19 06:02N 40°45' W 074°01'0 0.0
2018-Jun-19 02:07N 40°45' W 074°01'0 0.0
2018-Jun-19 01:46N 40°45' W 074°01'0 0.0
2018-Jun-18 22:06N 40°45' W 074°01'0 0.0
2018-Jun-18 21:58N 40°45' W 074°01'0 0.0
2018-Jun-18 19:45N 40°45' W 074°01'0 0.0
2018-Jun-18 19:30N 40°45' W 074°01'0 0.0
2018-Jun-18 18:52N 40°45' W 074°01'0 0.0
2018-Jun-18 18:07N 40°45' W 074°01'0 0.0
2018-Jun-18 17:37N 40°45' W 074°01'0 0.0
2018-Jun-18 16:09N 40°45' W 074°01'0 0.0
2018-Jun-18 15:08N 40°45' W 074°01'0 0.0
2018-Jun-18 14:50N 40°45' W 074°01'0 0.0
2018-Jun-18 06:46N 40°45' W 074°01'0 0.0
2018-Jun-18 06:16N 40°45' W 074°01'0 0.0
2018-Jun-18 05:59N 40°45' W 074°01'0 0.0
2018-Jun-18 05:22N 40°45' W 074°01'0 0.0
2018-Jun-18 05:00N 40°45' W 074°01'0 0.0
2018-Jun-18 04:23N 40°45' W 074°01'0 0.0
2018-Jun-18 03:53N 40°45' W 074°01'0 0.0
2018-Jun-18 03:30N 40°45' W 074°01'0 0.0
2018-Jun-18 02:57N 40°45' W 074°01'0 0.0
2018-Jun-18 02:25N 40°45' W 074°01'0 0.0
2018-Jun-18 01:04N 40°45' W 074°01'0 0.0
2018-Jun-18 01:00N 40°45' W 074°01'2 4.7
2018-Jun-18 00:30N 40°43' W 074°02'1 1.9
2018-Jun-18 00:00N 40°42' W 074°01'4 7.3
2018-Jun-17 23:30N 40°45' W 073°58'2 4.3
2018-Jun-17 23:00N 40°42' W 073°59'2 4.0
2018-Jun-17 22:30N 40°42' W 074°01'4 7.4
2018-Jun-17 22:00N 40°46' W 074°00'1 1.5
2018-Jun-17 21:21N 40°45' W 074°01'0 0.0
2018-Jun-17 20:58N 40°45' W 074°01'0 0.0
2018-Jun-17 20:26N 40°45' W 074°01'0 0.0
2018-Jun-17 16:38N 40°45' W 074°01'0 0.0
2018-Jun-17 08:27N 40°45' W 074°01'0 0.0
2018-Jun-17 07:47N 40°45' W 074°01'0 0.0
2018-Jun-17 07:23N 40°45' W 074°01'0 0.0
2018-Jun-17 05:43N 40°45' W 074°01'0 0.0
2018-Jun-17 05:28N 40°45' W 074°01'0 0.0
2018-Jun-17 04:55N 40°45' W 074°01'0 0.0
2018-Jun-17 04:29N 40°45' W 074°01'0 0.0
2018-Jun-17 03:59N 40°45' W 074°01'0 0.0
2018-Jun-17 03:26N 40°45' W 074°01'0 0.0
2018-Jun-17 02:57N 40°45' W 074°01'0 0.0
2018-Jun-16 18:32N 40°45' W 074°01'0 0.0
2018-Jun-16 18:24N 40°45' W 074°01'0 0.0
2018-Jun-16 17:53N 40°45' W 074°01'0 0.0
2018-Jun-16 17:05N 40°45' W 074°01'0 0.0
2018-Jun-16 16:57N 40°45' W 074°01'0 0.0
2018-Jun-16 16:19N 40°45' W 074°01'0 0.0
2018-Jun-16 16:00N 40°45' W 074°01'0 0.0
2018-Jun-16 15:20N 40°45' W 074°01'0 0.0
2018-Jun-16 14:56N 40°45' W 074°01'0 0.0
2018-Jun-16 13:11N 40°45' W 074°01'0 0.0
2018-Jun-16 12:57N 40°45' W 074°01'0 0.0
2018-Jun-16 12:16N 40°45' W 074°01'0 0.0
2018-Jun-16 09:54N 40°45' W 074°01'0 0.0
2018-Jun-16 09:27N 40°45' W 074°01'0 0.0
2018-Jun-16 08:04N 40°45' W 074°01'0 0.0
2018-Jun-16 07:11N 40°45' W 074°01'0 0.0
2018-Jun-16 06:58N 40°45' W 074°01'0 0.0
2018-Jun-16 06:22N 40°45' W 074°01'0 0.0
2018-Jun-16 04:36N 40°45' W 074°01'0 0.0
2018-Jun-16 04:17N 40°45' W 074°01'0 0.0
2018-Jun-16 04:00N 40°45' W 074°01'0 0.0
2018-Jun-16 03:30N 40°45' W 074°01'0 0.0
2018-Jun-16 02:59N 40°45' W 074°01'0 0.0
2018-Jun-16 02:30N 40°45' W 074°01'0 0.0
2018-Jun-16 02:00N 40°45' W 074°01'0 0.0
2018-Jun-16 01:26N 40°45' W 074°01'0 0.0
2018-Jun-16 00:25N 40°45' W 074°01'0 0.0
2018-Jun-15 17:16N 40°45' W 074°01'0 0.0
2018-Jun-15 16:17N 40°45' W 074°01'0 0.0
2018-Jun-15 15:53N 40°45' W 074°01'0 0.0
2018-Jun-15 15:21N 40°45' W 074°01'0 0.0
2018-Jun-15 14:32N 40°45' W 074°01'0 0.0
2018-Jun-15 12:24N 40°45' W 074°01'0 0.0
2018-Jun-15 11:53N 40°45' W 074°01'0 0.0
2018-Jun-15 11:29N 40°45' W 074°01'0 0.0
2018-Jun-15 10:56N 40°45' W 074°01'0 0.0
2018-Jun-15 03:45N 40°45' W 074°01'0 0.0
2018-Jun-15 01:50N 40°45' W 074°01'0 0.0
2018-Jun-15 01:14N 40°45' W 074°01'1 3.3
2018-Jun-15 01:00N 40°44' W 074°01'3 6.4
2018-Jun-15 00:30N 40°41' W 074°03'2 4.8
2018-Jun-15 00:00N 40°42' W 073°60'2 3.2
2018-Jun-14 23:30N 40°43' W 073°58'2 4.7
2018-Jun-14 23:00N 40°43' W 074°01'2 2.1
2018-Jun-14 22:15N 40°45' W 074°01'0 0.0
2018-Jun-14 22:00N 40°45' W 074°01'0 0.0
2018-Jun-14 20:57N 40°45' W 074°01'0 0.0
2018-Jun-14 20:30N 40°45' W 074°01'1 2.8
2018-Jun-14 20:00N 40°43' W 074°01'2 4.7
2018-Jun-14 19:30N 40°41' W 074°02'2 4.5
2018-Jun-14 19:00N 40°42' W 073°60'2 4.2
2018-Jun-14 18:30N 40°44' W 073°58'  
Track history (hours):
 
Tides and Currents Weather Stations Pressure Air Temp Water Temp Dewpoint Dewpoint Depression Visibility Wind Speed Wind Dir Waves Ship Positions

Manhattan Elite

Owner: SPIRIT CRUISES LLC, New York, NY. More information available from US FCC via Universal Licensing System and Coast Guard Vessel Documentation Center.

Last reported at 2018-Jun-24 18:17 UTC. Time now 2018-Jun-24 18:51 UTC.
Position N 40°45' W 074°01'.

Length 25 m; draft 3 m.

Type: Ship. MMSI: 367586480.

Date/timePositionNaut miles runAvg speedWind from/ knotsBaromVisibWave heightAir tempDewpointWater temp
2018-Jun-24 18:17N 40°45' W 074°01'0 0.0
2018-Jun-24 12:16N 40°45' W 074°01'0 0.0
2018-Jun-24 11:58N 40°45' W 074°01'0 0.0
2018-Jun-24 11:26N 40°45' W 074°01'0 0.0
2018-Jun-24 07:29N 40°45' W 074°01'0 0.0
2018-Jun-24 06:52N 40°45' W 074°01'0 0.0
2018-Jun-24 06:24N 40°45' W 074°01'0 0.0
2018-Jun-24 05:58N 40°45' W 074°01'0 0.0
2018-Jun-24 05:29N 40°45' W 074°01'0 0.0
2018-Jun-24 04:33N 40°45' W 074°01'0 0.0
2018-Jun-24 01:57N 40°45' W 074°01'2 4.6
2018-Jun-24 01:30N 40°43' W 074°01'2 3.7
2018-Jun-24 01:00N 40°41' W 074°03'1 2.6
2018-Jun-24 00:30N 40°42' W 074°01'2 4.3
2018-Jun-24 00:01N 40°43' W 073°58'2 4.3
2018-Jun-23 23:31N 40°43' W 074°01'3 6.2
2018-Jun-23 23:01N 40°46' W 074°00'1 2.2
2018-Jun-23 22:30N 40°45' W 074°01'0 0.0
2018-Jun-23 21:59N 40°45' W 074°01'0 0.0
2018-Jun-23 21:30N 40°45' W 074°01'0 0.0
2018-Jun-23 20:55N 40°45' W 074°01'0 0.0
2018-Jun-23 20:25N 40°45' W 074°01'0 0.0
2018-Jun-23 19:58N 40°45' W 074°01'0 0.0
2018-Jun-23 19:11N 40°45' W 074°01'0 0.0
2018-Jun-23 17:58N 40°45' W 074°01'0 0.0
2018-Jun-23 13:38N 40°45' W 074°01'0 0.0
2018-Jun-23 13:27N 40°45' W 074°01'0 0.0
2018-Jun-23 11:35N 40°45' W 074°01'0 0.0
2018-Jun-23 11:27N 40°45' W 074°01'0 0.0
2018-Jun-23 10:57N 40°45' W 074°01'0 0.0
2018-Jun-23 10:07N 40°45' W 074°01'0 0.0
2018-Jun-23 09:58N 40°45' W 074°01'0 0.0
2018-Jun-23 09:13N 40°45' W 074°01'0 0.0
2018-Jun-23 08:59N 40°45' W 074°01'0 0.0
2018-Jun-23 08:23N 40°45' W 074°01'0 0.0
2018-Jun-23 07:58N 40°45' W 074°01'0 0.0
2018-Jun-23 07:24N 40°45' W 074°01'0 0.0
2018-Jun-23 06:51N 40°45' W 074°01'0 0.0
2018-Jun-23 06:27N 40°45' W 074°01'0 0.0
2018-Jun-23 05:52N 40°45' W 074°01'0 0.0
2018-Jun-23 05:28N 40°45' W 074°01'0 0.0
2018-Jun-23 04:16N 40°45' W 074°01'0 0.0
2018-Jun-23 03:54N 40°45' W 074°01'0 0.0
2018-Jun-23 03:13N 40°45' W 074°01'0 0.0
2018-Jun-23 02:57N 40°45' W 074°01'0 0.0
2018-Jun-23 00:23N 40°45' W 074°01'0 0.0
2018-Jun-22 23:59N 40°45' W 074°01'0 0.0
2018-Jun-22 23:26N 40°45' W 074°01'0 0.0
2018-Jun-22 22:55N 40°45' W 074°01'0 0.0
2018-Jun-22 22:25N 40°45' W 074°01'0 0.0
2018-Jun-22 21:43N 40°45' W 074°01'0 0.0
2018-Jun-22 21:29N 40°45' W 074°01'0 0.0
2018-Jun-22 20:49N 40°45' W 074°01'0 0.0
2018-Jun-22 20:18N 40°45' W 074°01'0 0.0
2018-Jun-22 19:53N 40°45' W 074°01'0 0.0
2018-Jun-22 18:31N 40°45' W 074°01'0 0.0
2018-Jun-22 18:23N 40°45' W 074°01'0 0.0
2018-Jun-22 18:00N 40°45' W 074°01'0 0.0
2018-Jun-22 17:18N 40°45' W 074°01'0 0.0
2018-Jun-22 15:24N 40°45' W 074°01'0 0.0
2018-Jun-22 14:55N 40°45' W 074°01'0 0.0
2018-Jun-22 14:27N 40°45' W 074°01'0 0.0
2018-Jun-22 11:45N 40°45' W 074°01'0 0.0
2018-Jun-22 11:21N 40°45' W 074°01'0 0.0
2018-Jun-22 10:59N 40°45' W 074°01'0 0.0
2018-Jun-22 10:25N 40°45' W 074°01'0 0.0
2018-Jun-22 10:00N 40°45' W 074°01'0 0.0
2018-Jun-22 09:29N 40°45' W 074°01'0 0.0
2018-Jun-22 08:56N 40°45' W 074°01'0 0.0
2018-Jun-22 08:24N 40°45' W 074°01'0 0.0
2018-Jun-22 07:58N 40°45' W 074°01'0 0.0
2018-Jun-22 07:28N 40°45' W 074°01'0 0.0
2018-Jun-22 06:59N 40°45' W 074°01'0 0.0
2018-Jun-22 06:20N 40°45' W 074°01'0 0.0
2018-Jun-22 05:58N 40°45' W 074°01'0 0.0
2018-Jun-22 05:21N 40°45' W 074°01'0 0.0
2018-Jun-22 05:00N 40°45' W 074°01'0 0.0
2018-Jun-22 04:30N 40°45' W 074°01'0 0.0
2018-Jun-22 03:58N 40°45' W 074°01'0 0.0
2018-Jun-22 03:21N 40°45' W 074°01'0 0.0
2018-Jun-22 02:28N 40°45' W 074°01'0 0.0
2018-Jun-22 01:53N 40°45' W 074°01'0 0.0
2018-Jun-21 23:02N 40°45' W 074°01'0 0.0
2018-Jun-21 22:47N 40°45' W 074°01'0 0.0
2018-Jun-21 22:24N 40°45' W 074°01'0 0.0
2018-Jun-21 21:46N 40°45' W 074°01'0 0.0
2018-Jun-21 21:14N 40°45' W 074°01'0 0.0
2018-Jun-21 20:51N 40°45' W 074°01'0 0.0
2018-Jun-21 20:25N 40°45' W 074°01'0 0.0
2018-Jun-21 19:58N 40°45' W 074°01'0 0.0
2018-Jun-21 19:26N 40°45' W 074°01'0 0.0
2018-Jun-21 18:55N 40°45' W 074°01'0 0.0
2018-Jun-21 18:25N 40°45' W 074°01'0 0.0
2018-Jun-21 17:35N 40°45' W 074°01'0 0.0
2018-Jun-21 17:20N 40°45' W 074°01'0 0.0
2018-Jun-21 16:51N 40°45' W 074°01'0 0.0
2018-Jun-21 16:30N 40°45' W 074°01'0 0.0
2018-Jun-21 15:43N 40°45' W 074°01'0 0.0
2018-Jun-21 15:22N 40°45' W 074°01'0 0.0
2018-Jun-21 13:50N 40°45' W 074°01'0 0.0
2018-Jun-21 11:00N 40°45' W 074°01'0 0.0
2018-Jun-21 10:26N 40°45' W 074°01'0 0.0
2018-Jun-21 10:00N 40°45' W 074°01'0 0.0
2018-Jun-21 09:27N 40°45' W 074°01'0 0.0
2018-Jun-21 08:48N 40°45' W 074°01'0 0.0
2018-Jun-21 08:24N 40°45' W 074°01'0 0.0
2018-Jun-21 07:53N 40°45' W 074°01'0 0.0
2018-Jun-21 07:29N 40°45' W 074°01'0 0.0
2018-Jun-21 06:59N 40°45' W 074°01'0 0.0
2018-Jun-21 06:00N 40°45' W 074°01'0 0.0
2018-Jun-21 05:13N 40°45' W 074°01'0 0.0
2018-Jun-21 04:59N 40°45' W 074°01'0 0.0
2018-Jun-21 04:25N 40°45' W 074°01'0 0.0
2018-Jun-21 03:59N 40°45' W 074°01'0 0.0
2018-Jun-21 03:28N 40°45' W 074°01'0 0.0
2018-Jun-21 02:48N 40°45' W 074°01'0 0.0
2018-Jun-20 23:04N 40°45' W 074°01'0 0.0
2018-Jun-20 22:56N 40°45' W 074°01'0 0.0
2018-Jun-20 22:15N 40°45' W 074°01'0 0.0
2018-Jun-20 21:14N 40°45' W 074°01'0 0.0
2018-Jun-20 20:57N 40°45' W 074°01'0 0.0
2018-Jun-20 20:21N 40°45' W 074°01'0 0.0
2018-Jun-20 19:13N 40°45' W 074°01'0 0.0
2018-Jun-20 18:54N 40°45' W 074°01'0 0.0
2018-Jun-20 17:20N 40°45' W 074°01'0 0.0
2018-Jun-20 11:15N 40°45' W 074°01'0 0.0
2018-Jun-20 10:57N 40°45' W 074°01'0 0.0
2018-Jun-20 10:17N 40°45' W 074°01'0 0.0
2018-Jun-20 09:50N 40°45' W 074°01'0 0.0
2018-Jun-20 09:30N 40°45' W 074°01'0 0.0
2018-Jun-20 08:55N 40°45' W 074°01'0 0.0
2018-Jun-20 08:25N 40°45' W 074°01'0 0.0
2018-Jun-20 07:59N 40°45' W 074°01'0 0.0
2018-Jun-20 07:29N 40°45' W 074°01'0 0.0
2018-Jun-20 07:00N 40°45' W 074°01'0 0.0
2018-Jun-20 06:23N 40°45' W 074°01'0 0.0
2018-Jun-20 05:59N 40°45' W 074°01'0 0.0
2018-Jun-20 05:19N 40°45' W 074°01'0 0.0
2018-Jun-20 04:57N 40°45' W 074°01'0 0.0
2018-Jun-20 04:15N 40°45' W 074°01'0 0.0
2018-Jun-20 02:55N 40°45' W 074°01'0 0.4
2018-Jun-20 02:30N 40°45' W 074°01'1 1.4
2018-Jun-20 02:00N 40°46' W 074°01'2 3.2
2018-Jun-20 01:30N 40°44' W 074°01'2 4.5
2018-Jun-20 01:00N 40°42' W 074°02'1 1.3
2018-Jun-20 00:30N 40°42' W 074°01'3 6.7
2018-Jun-20 00:00N 40°44' W 073°58'2 4.2
2018-Jun-19 23:30N 40°42' W 073°59'2 4.0
2018-Jun-19 23:00N 40°44' W 074°01'2 3.4
2018-Jun-19 22:30N 40°46' W 074°01'0 0.0
2018-Jun-19 21:56N 40°46' W 074°01'1 1.7
2018-Jun-19 21:28N 40°45' W 074°01'0 0.0
2018-Jun-19 20:59N 40°45' W 074°01'0 0.0
2018-Jun-19 20:30N 40°45' W 074°01'0 0.0
2018-Jun-19 20:00N 40°45' W 074°01'0 0.5
2018-Jun-19 19:30N 40°45' W 074°01'4 7.4
2018-Jun-19 19:00N 40°42' W 074°02'2 4.2
2018-Jun-19 18:30N 40°42' W 073°60'3 5.1
2018-Jun-19 18:00N 40°45' W 073°58'4 7.2
2018-Jun-19 17:30N 40°42' W 074°01'3 5.9
2018-Jun-19 17:00N 40°45' W 074°01'0 0.0
2018-Jun-19 16:25N 40°45' W 074°01'0 0.0
2018-Jun-19 15:40N 40°45' W 074°01'0 0.0
2018-Jun-19 15:19N 40°45' W 074°01'0 0.0
2018-Jun-19 14:14N 40°45' W 074°01'0 0.0
2018-Jun-19 12:03N 40°45' W 074°01'0 0.0
2018-Jun-19 11:40N 40°45' W 074°01'0 0.0
2018-Jun-19 10:01N 40°45' W 074°01'0 0.0
2018-Jun-19 09:50N 40°45' W 074°01'0 0.0
2018-Jun-19 09:28N 40°45' W 074°01'0 0.0
2018-Jun-19 08:33N 40°45' W 074°01'0 0.0
2018-Jun-19 08:23N 40°45' W 074°01'0 0.0
2018-Jun-19 07:50N 40°45' W 074°01'0 0.0
2018-Jun-19 07:30N 40°45' W 074°01'0 0.0
2018-Jun-19 06:02N 40°45' W 074°01'0 0.0
2018-Jun-19 02:07N 40°45' W 074°01'0 0.0
2018-Jun-19 01:46N 40°45' W 074°01'0 0.0
2018-Jun-18 22:06N 40°45' W 074°01'0 0.0
2018-Jun-18 21:58N 40°45' W 074°01'0 0.0
2018-Jun-18 19:45N 40°45' W 074°01'0 0.0
2018-Jun-18 19:30N 40°45' W 074°01'0 0.0
2018-Jun-18 18:52N 40°45' W 074°01'0 0.0
2018-Jun-18 18:07N 40°45' W 074°01'0 0.0
2018-Jun-18 17:37N 40°45' W 074°01'0 0.0
2018-Jun-18 16:09N 40°45' W 074°01'0 0.0
2018-Jun-18 15:08N 40°45' W 074°01'0 0.0
2018-Jun-18 14:50N 40°45' W 074°01'0 0.0
2018-Jun-18 06:46N 40°45' W 074°01'0 0.0
2018-Jun-18 06:16N 40°45' W 074°01'0 0.0
2018-Jun-18 05:59N 40°45' W 074°01'0 0.0
2018-Jun-18 05:22N 40°45' W 074°01'0 0.0
2018-Jun-18 05:00N 40°45' W 074°01'0 0.0
2018-Jun-18 04:23N 40°45' W 074°01'0 0.0
2018-Jun-18 03:53N 40°45' W 074°01'0 0.0
2018-Jun-18 03:30N 40°45' W 074°01'0 0.0
2018-Jun-18 02:57N 40°45' W 074°01'0 0.0
2018-Jun-18 02:25N 40°45' W 074°01'0 0.0
2018-Jun-18 01:04N 40°45' W 074°01'0 0.0
2018-Jun-18 01:00N 40°45' W 074°01'2 4.7
2018-Jun-18 00:30N 40°43' W 074°02'1 1.9
2018-Jun-18 00:00N 40°42' W 074°01'4 7.3
2018-Jun-17 23:30N 40°45' W 073°58'2 4.3
2018-Jun-17 23:00N 40°42' W 073°59'2 4.0
2018-Jun-17 22:30N 40°42' W 074°01'4 7.4
2018-Jun-17 22:00N 40°46' W 074°00'1 1.5
2018-Jun-17 21:21N 40°45' W 074°01'0 0.0
2018-Jun-17 20:58N 40°45' W 074°01'0 0.0
2018-Jun-17 20:26N 40°45' W 074°01'0 0.0
2018-Jun-17 16:38N 40°45' W 074°01'0 0.0
2018-Jun-17 08:27N 40°45' W 074°01'0 0.0
2018-Jun-17 07:47N 40°45' W 074°01'0 0.0
2018-Jun-17 07:23N 40°45' W 074°01'0 0.0
2018-Jun-17 05:43N 40°45' W 074°01'0 0.0
2018-Jun-17 05:28N 40°45' W 074°01'0 0.0
2018-Jun-17 04:55N 40°45' W 074°01'0 0.0
2018-Jun-17 04:29N 40°45' W 074°01'0 0.0
2018-Jun-17 03:59N 40°45' W 074°01'0 0.0
2018-Jun-17 03:26N 40°45' W 074°01'0 0.0
2018-Jun-17 02:57N 40°45' W 074°01'0 0.0
2018-Jun-16 18:32N 40°45' W 074°01'0 0.0
2018-Jun-16 18:24N 40°45' W 074°01'0 0.0
2018-Jun-16 17:53N 40°45' W 074°01'0 0.0
2018-Jun-16 17:05N 40°45' W 074°01'0 0.0
2018-Jun-16 16:57N 40°45' W 074°01'0 0.0
2018-Jun-16 16:19N 40°45' W 074°01'0 0.0
2018-Jun-16 16:00N 40°45' W 074°01'0 0.0
2018-Jun-16 15:20N 40°45' W 074°01'0 0.0
2018-Jun-16 14:56N 40°45' W 074°01'0 0.0
2018-Jun-16 13:11N 40°45' W 074°01'0 0.0
2018-Jun-16 12:57N 40°45' W 074°01'0 0.0
2018-Jun-16 12:16N 40°45' W 074°01'0 0.0
2018-Jun-16 09:54N 40°45' W 074°01'0 0.0
2018-Jun-16 09:27N 40°45' W 074°01'0 0.0
2018-Jun-16 08:04N 40°45' W 074°01'0 0.0
2018-Jun-16 07:11N 40°45' W 074°01'0 0.0
2018-Jun-16 06:58N 40°45' W 074°01'0 0.0
2018-Jun-16 06:22N 40°45' W 074°01'0 0.0
2018-Jun-16 04:36N 40°45' W 074°01'0 0.0
2018-Jun-16 04:17N 40°45' W 074°01'0 0.0
2018-Jun-16 04:00N 40°45' W 074°01'0 0.0
2018-Jun-16 03:30N 40°45' W 074°01'0 0.0
2018-Jun-16 02:59N 40°45' W 074°01'0 0.0
2018-Jun-16 02:30N 40°45' W 074°01'0 0.0
2018-Jun-16 02:00N 40°45' W 074°01'0 0.0
2018-Jun-16 01:26N 40°45' W 074°01'0 0.0
2018-Jun-16 00:25N 40°45' W 074°01'0 0.0
2018-Jun-15 17:16N 40°45' W 074°01'0 0.0
2018-Jun-15 16:17N 40°45' W 074°01'0 0.0
2018-Jun-15 15:53N 40°45' W 074°01'0 0.0
2018-Jun-15 15:21N 40°45' W 074°01'0 0.0
2018-Jun-15 14:32N 40°45' W 074°01'0 0.0
2018-Jun-15 12:24N 40°45' W 074°01'0 0.0
2018-Jun-15 11:53N 40°45' W 074°01'0 0.0
2018-Jun-15 11:29N 40°45' W 074°01'0 0.0
2018-Jun-15 10:56N 40°45' W 074°01'0 0.0
2018-Jun-15 03:45N 40°45' W 074°01'0 0.0
2018-Jun-15 01:50N 40°45' W 074°01'0 0.0
2018-Jun-15 01:14N 40°45' W 074°01'1 3.3
2018-Jun-15 01:00N 40°44' W 074°01'3 6.4
2018-Jun-15 00:30N 40°41' W 074°03'2 4.8
2018-Jun-15 00:00N 40°42' W 073°60'2 3.2
2018-Jun-14 23:30N 40°43' W 073°58'2 4.7
2018-Jun-14 23:00N 40°43' W 074°01'2 2.1
2018-Jun-14 22:15N 40°45' W 074°01'0 0.0
2018-Jun-14 22:00N 40°45' W 074°01'0 0.0
2018-Jun-14 20:57N 40°45' W 074°01'0 0.0
2018-Jun-14 20:30N 40°45' W 074°01'1 2.8
2018-Jun-14 20:00N 40°43' W 074°01'2 4.7
2018-Jun-14 19:30N 40°41' W 074°02'2 4.5
2018-Jun-14 19:00N 40°42' W 073°60'2 4.2
2018-Jun-14 18:30N 40°44' W 073°58'  

Dump ship's entire track history